Time;durP1;ratioP1;P1;durP2;ratioP2;P2;SDS_P1;SDS_P2;PMS_P1;PMS_P2;Temp;Humidity;BMP_temperature;BMP_pressure;BME280_temperature;BME280_humidity;BME280_pressure;Samples;Min_cycle;Max_cycle;Signal;HPM_P1;HPM_P2
2022/05/14 00:00:20;;;;;;;4.53;1.93;;;;;;;10.39;100.00;96693.97;5023090;28;20055;-75
2022/05/14 00:02:45;;;;;;;6.10;2.57;;;;;;;10.45;100.00;96696.00;5011694;28;20101;-76
2022/05/14 00:05:11;;;;;;;9.70;2.10;;;;;;;10.48;100.00;96695.72;5025230;28;20121;-75
2022/05/14 00:07:38;;;;;;;7.93;2.00;;;;;;;10.44;100.00;96689.09;5045377;28;20136;-75
2022/05/14 00:10:05;;;;;;;7.90;2.37;;;;;;;10.43;100.00;96689.22;5039389;28;20097;-75
2022/05/14 00:15:15;;;;;;;7.50;2.23;;;;;;;10.45;100.00;96685.50;5055197;28;20033;-75
2022/05/14 00:17:42;;;;;;;6.33;2.10;;;;;;;10.62;100.00;96682.06;5047221;28;20052;-75
2022/05/14 00:20:09;;;;;;;6.93;2.20;;;;;;;10.65;100.00;96682.75;5050210;28;20033;-76
2022/05/14 00:22:34;;;;;;;6.50;2.77;;;;;;;10.43;100.00;96686.59;5043587;28;20072;-75
2022/05/14 00:25:00;;;;;;;6.63;2.50;;;;;;;10.18;100.00;96677.59;5032693;28;20037;-75
2022/05/14 00:27:27;;;;;;;6.10;2.43;;;;;;;10.20;100.00;96676.47;5029081;28;20025;-75
2022/05/14 00:29:55;;;;;;;7.93;2.77;;;;;;;10.06;100.00;96682.19;5021633;28;20163;-75
2022/05/14 00:32:20;;;;;;;10.20;2.87;;;;;;;10.06;100.00;96679.56;5038763;28;20035;-75
2022/05/14 00:34:46;;;;;;;5.37;2.67;;;;;;;10.10;100.00;96681.78;5016964;28;20072;-75
2022/05/14 00:37:12;;;;;;;4.93;2.50;;;;;;;10.11;100.00;96680.78;5020157;28;20026;-75
2022/05/14 00:39:38;;;;;;;11.70;3.17;;;;;;;9.88;100.00;96682.94;5033002;28;20029;-75
2022/05/14 00:42:04;;;;;;;9.07;2.90;;;;;;;9.88;100.00;96676.88;5039314;28;20100;-75
2022/05/14 00:44:29;;;;;;;10.80;2.87;;;;;;;9.85;100.00;96677.97;5036619;28;20033;-75
2022/05/14 00:46:59;;;;;;;8.33;3.33;;;;;;;9.86;100.00;96673.59;5032040;28;20030;-75
2022/05/14 00:49:28;;;;;;;6.43;2.70;;;;;;;9.83;100.00;96671.25;5029447;28;20043;-75
2022/05/14 00:51:54;;;;;;;6.63;2.80;;;;;;;9.78;100.00;96673.44;5047574;28;20025;-75
2022/05/14 00:54:30;;;;;;;8.00;2.43;;;;;;;9.89;100.00;96673.25;5039743;28;20104;-75
2022/05/14 00:57:01;;;;;;;7.93;2.70;;;;;;;9.73;100.00;96667.81;5038554;28;20104;-75
2022/05/14 00:59:27;;;;;;;8.90;3.07;;;;;;;9.68;100.00;96662.97;5029726;28;20064;-75
2022/05/14 01:01:54;;;;;;;6.43;3.17;;;;;;;9.49;100.00;96666.50;5043033;28;20768;-75
2022/05/14 01:04:21;;;;;;;9.27;3.10;;;;;;;9.43;100.00;96667.06;5034389;28;20049;-75
2022/05/14 01:07:01;;;;;;;7.07;3.07;;;;;;;9.34;100.00;96668.72;5033291;28;20373;-75
2022/05/14 01:09:27;;;;;;;6.20;2.80;;;;;;;9.35;100.00;96666.91;5042965;28;20044;-76
2022/05/14 01:11:54;;;;;;;6.63;2.73;;;;;;;9.30;100.00;96663.91;5035091;28;20033;-75
2022/05/14 01:14:21;;;;;;;13.10;3.70;;;;;;;9.37;100.00;96670.25;5032931;28;20025;-75
2022/05/14 01:16:48;;;;;;;7.47;3.00;;;;;;;9.44;100.00;96668.72;5023257;28;20115;-75
2022/05/14 01:19:14;;;;;;;6.93;2.90;;;;;;;9.44;100.00;96659.03;5033007;28;20033;-75
2022/05/14 01:22:16;;;;;;;7.97;2.50;;;;;;;9.39;100.00;96657.81;5047330;28;20032;-75
2022/05/14 01:28:02;;;;;;;7.80;2.73;;;;;;;9.39;100.00;96656.03;5029410;28;20100;-75
2022/05/14 01:30:30;;;;;;;8.17;3.60;;;;;;;9.37;100.00;96657.94;5016206;28;20045;-75
2022/05/14 01:33:06;;;;;;;8.27;2.40;;;;;;;9.54;100.00;96656.38;5019479;28;20033;-75
2022/05/14 01:35:47;;;;;;;7.50;2.13;;;;;;;9.70;100.00;96653.16;5020820;28;20037;-75
2022/05/14 01:38:17;;;;;;;5.17;1.93;;;;;;;9.67;100.00;96653.44;5036131;28;20116;-76
2022/05/14 01:40:44;;;;;;;9.53;2.00;;;;;;;9.56;100.00;96656.25;5034327;28;20093;-74
2022/05/14 01:43:10;;;;;;;5.57;2.00;;;;;;;9.52;100.00;96662.75;5040970;28;20094;-75
2022/05/14 01:45:37;;;;;;;5.03;2.40;;;;;;;9.43;100.00;96662.63;5030864;28;20044;-75
2022/05/14 01:48:04;;;;;;;7.60;2.10;;;;;;;9.42;100.00;96662.75;5031074;28;20060;-75
2022/05/14 01:50:30;;;;;;;7.77;2.10;;;;;;;9.25;100.00;96661.69;5043159;28;20314;-75
2022/05/14 01:52:56;;;;;;;9.07;1.80;;;;;;;9.30;100.00;96658.66;5042724;28;20036;-77
2022/05/14 01:55:22;;;;;;;7.70;2.03;;;;;;;9.30;100.00;96661.28;5036323;28;20059;-75
2022/05/14 01:57:48;;;;;;;6.57;2.27;;;;;;;9.11;100.00;96664.75;5028406;28;20029;-75
2022/05/14 02:00:17;;;;;;;11.60;3.10;;;;;;;9.04;100.00;96661.03;5031248;28;20022;-75
2022/05/14 02:02:50;;;;;;;6.33;2.43;;;;;;;9.12;100.00;96656.75;5032901;28;20039;-75
2022/05/14 02:05:17;;;;;;;6.00;2.20;;;;;;;9.16;100.00;96657.31;5044148;28;20054;-75
2022/05/14 02:07:44;;;;;;;5.90;2.20;;;;;;;9.14;100.00;96665.28;5032156;28;20029;-75
2022/05/14 02:10:10;;;;;;;6.27;2.20;;;;;;;9.13;100.00;96658.41;5036801;28;20029;-75
2022/05/14 02:12:37;;;;;;;7.20;2.40;;;;;;;8.96;100.00;96654.69;5032377;28;20103;-75
2022/05/14 02:15:04;;;;;;;5.10;2.20;;;;;;;8.71;100.00;96657.84;5020771;28;20032;-75
2022/05/14 02:17:30;;;;;;;10.00;2.50;;;;;;;8.69;100.00;96652.75;5045902;28;20033;-75
2022/05/14 02:19:56;;;;;;;4.00;1.90;;;;;;;8.84;100.00;96649.72;5027315;28;20036;-75
2022/05/14 02:22:22;;;;;;;5.80;2.50;;;;;;;8.91;100.00;96653.44;5038513;28;20022;-75
2022/05/14 02:24:48;;;;;;;6.50;2.27;;;;;;;8.96;100.00;96654.69;5022272;28;20084;-75
2022/05/14 02:27:14;;;;;;;4.40;1.90;;;;;;;8.86;100.00;96653.88;5022405;28;20036;-75
2022/05/14 02:29:56;;;;;;;6.47;1.70;;;;;;;8.97;100.00;96652.88;5045162;28;20033;-75
2022/05/14 02:32:24;;;;;;;7.90;2.77;;;;;;;8.93;100.00;96651.50;5030048;28;20685;-75
2022/05/14 02:34:51;;;;;;;8.03;2.00;;;;;;;8.87;100.00;96654.69;5033710;28;20040;-75
2022/05/14 02:37:22;;;;;;;5.87;2.20;;;;;;;8.89;100.00;96658.00;5053411;28;20530;-75
2022/05/14 02:39:48;;;;;;;6.37;1.93;;;;;;;8.87;100.00;96659.94;5029864;28;20029;-75
2022/05/14 02:42:14;;;;;;;11.50;2.50;;;;;;;8.85;100.00;96656.59;5037625;28;20026;-74
2022/05/14 02:44:40;;;;;;;10.40;2.57;;;;;;;8.81;100.00;96663.09;5023950;28;20103;-75
2022/05/14 02:47:07;;;;;;;4.87;2.03;;;;;;;8.69;100.00;96658.00;5044988;28;20037;-75
2022/05/14 02:49:32;;;;;;;9.07;3.60;;;;;;;8.59;100.00;96658.97;5039149;28;20399;-76
2022/05/14 02:52:02;;;;;;;6.80;2.50;;;;;;;8.57;100.00;96663.50;5031216;28;20510;-76
2022/05/14 02:54:28;;;;;;;8.43;2.23;;;;;;;8.64;100.00;96654.13;5026259;28;20064;-76
2022/05/14 02:56:54;;;;;;;7.37;2.10;;;;;;;8.73;100.00;96651.50;5029330;28;20025;-76
2022/05/14 02:59:20;;;;;;;6.80;1.87;;;;;;;8.76;100.00;96657.47;5041649;28;20165;-76
2022/05/14 03:01:50;;;;;;;3.63;1.50;;;;;;;8.74;100.00;96654.94;5035361;28;20021;-76
2022/05/14 03:04:25;;;;;;;4.07;2.27;;;;;;;8.72;100.00;96654.28;5024314;28;20368;-76
2022/05/14 03:06:52;;;;;;;8.67;2.17;;;;;;;8.71;100.00;96649.97;5043705;28;20063;-75
2022/05/14 03:09:19;;;;;;;3.67;1.80;;;;;;;8.67;100.00;96656.47;5039365;28;20037;-75
2022/05/14 03:11:46;;;;;;;9.30;2.43;;;;;;;8.60;100.00;96657.97;5036570;28;20075;-75
2022/05/14 03:14:12;;;;;;;6.17;2.30;;;;;;;8.40;100.00;96657.13;5036299;28;20024;-76
2022/05/14 03:16:40;;;;;;;7.60;2.60;;;;;;;8.38;100.00;96657.25;5031070;28;20037;-75
2022/05/14 03:19:06;;;;;;;10.17;4.40;;;;;;;8.43;100.00;96660.31;5042473;28;20028;-75
2022/05/14 03:21:32;;;;;;;5.03;1.80;;;;;;;8.44;100.00;96663.75;5044154;28;20043;-75
2022/05/14 03:23:58;;;;;;;6.70;2.10;;;;;;;8.49;100.00;96658.94;5030032;28;20086;-75
2022/05/14 03:26:24;;;;;;;4.43;2.10;;;;;;;8.45;100.00;96665.41;5040155;28;20064;-75
2022/05/14 03:28:50;;;;;;;6.27;2.50;;;;;;;8.46;100.00;96667.06;5047137;28;20037;-75
2022/05/14 03:31:16;;;;;;;5.87;1.83;;;;;;;8.38;100.00;96664.28;5020758;28;20017;-76
2022/05/14 03:33:42;;;;;;;4.57;2.47;;;;;;;8.41;100.00;96656.97;5031401;28;20033;-75
2022/05/14 03:36:08;;;;;;;5.17;2.10;;;;;;;8.42;100.00;96676.19;5030818;28;20033;-75
2022/05/14 03:38:35;;;;;;;3.30;1.70;;;;;;;8.29;100.00;96675.56;5027315;28;20040;-76
2022/05/14 03:41:03;;;;;;;4.80;1.80;;;;;;;8.18;100.00;96673.84;5039345;28;20103;-75
2022/05/14 03:43:30;;;;;;;3.43;2.13;;;;;;;8.25;100.00;96675.00;5042600;28;20045;-75
2022/05/14 03:45:57;;;;;;;6.30;1.87;;;;;;;8.32;100.00;96673.50;5049316;28;20025;-75
2022/05/14 03:48:24;;;;;;;9.13;2.97;;;;;;;8.34;100.00;96679.41;5049079;28;20033;-75
2022/05/14 03:50:50;;;;;;;9.23;2.23;;;;;;;8.32;100.00;96678.75;5026031;28;20028;-76
2022/05/14 03:53:15;;;;;;;5.20;2.30;;;;;;;8.28;100.00;96677.31;5047275;28;20037;-75
2022/05/14 03:55:41;;;;;;;6.23;1.90;;;;;;;8.32;100.00;96678.75;5034669;28;20029;-75
2022/05/14 03:58:07;;;;;;;8.77;3.67;;;;;;;8.29;100.00;96680.81;5045804;28;20443;-75
2022/05/14 04:00:34;;;;;;;11.77;2.10;;;;;;;8.32;100.00;96686.59;5045239;28;20021;-76
2022/05/14 04:03:00;;;;;;;5.03;2.17;;;;;;;8.32;100.00;96676.13;5027363;28;20097;-75
2022/05/14 04:05:26;;;;;;;5.47;2.10;;;;;;;8.39;100.00;96687.75;5019820;28;20026;-75
2022/05/14 04:07:52;;;;;;;6.67;2.20;;;;;;;8.38;100.00;96680.00;5043549;28;20509;-75
2022/05/14 04:10:18;;;;;;;5.20;2.20;;;;;;;8.47;100.00;96682.66;5037438;28;20029;-75
2022/05/14 04:12:45;;;;;;;6.70;3.10;;;;;;;8.50;100.00;96684.19;5038427;28;20036;-75
2022/05/14 04:15:13;;;;;;;5.77;1.83;;;;;;;8.47;100.00;96684.44;5016911;28;20053;-75
2022/05/14 04:17:39;;;;;;;5.80;2.20;;;;;;;8.46;100.00;96681.00;5025160;28;20026;-75
2022/05/14 04:20:05;;;;;;;6.07;2.07;;;;;;;8.48;100.00;96684.34;5023759;28;20040;-74
2022/05/14 04:22:31;;;;;;;6.37;2.10;;;;;;;8.42;100.00;96682.25;5042893;28;20447;-74
2022/05/14 04:24:58;;;;;;;6.97;2.50;;;;;;;8.44;100.00;96680.28;5030783;28;20121;-75
2022/05/14 04:27:24;;;;;;;13.03;2.50;;;;;;;8.42;100.00;96684.03;5026079;28;20033;-75
2022/05/14 04:29:50;;;;;;;6.33;2.03;;;;;;;8.38;100.00;96680.00;5050688;28;20029;-75
2022/05/14 04:32:16;;;;;;;10.10;2.43;;;;;;;8.50;100.00;96679.75;5040775;28;20021;-74
2022/05/14 04:34:43;;;;;;;6.33;2.43;;;;;;;8.48;100.00;96686.09;5031729;28;20069;-74
2022/05/14 04:37:09;;;;;;;5.07;2.10;;;;;;;8.51;100.00;96683.22;5045685;28;20032;-75
2022/05/14 04:39:35;;;;;;;7.67;2.10;;;;;;;8.54;100.00;96688.19;5039099;28;20045;-74
2022/05/14 04:42:03;;;;;;;15.53;2.93;;;;;;;8.62;100.00;96683.09;5018421;28;20055;-74
2022/05/14 04:44:31;;;;;;;6.40;2.20;;;;;;;8.69;100.00;96692.09;5038079;28;20028;-74
2022/05/14 04:46:57;;;;;;;6.30;2.20;;;;;;;8.77;100.00;96691.41;5040839;28;20025;-75
2022/05/14 04:49:23;;;;;;;5.63;2.30;;;;;;;8.85;100.00;96688.06;5047511;28;20049;-75
2022/05/14 04:51:49;;;;;;;7.33;2.43;;;;;;;8.95;100.00;96688.91;5043050;28;20101;-74
2022/05/14 04:54:15;;;;;;;5.57;2.13;;;;;;;9.04;100.00;96688.09;5047955;28;20049;-74
2022/05/14 04:56:42;;;;;;;10.27;4.23;;;;;;;9.11;100.00;96689.19;5040898;28;20040;-75
2022/05/14 04:59:08;;;;;;;8.43;2.40;;;;;;;9.27;100.00;96693.88;5045867;28;20040;-74
2022/05/14 05:01:34;;;;;;;10.60;2.80;;;;;;;9.45;100.00;96696.59;5021311;28;20029;-74
2022/05/14 05:04:01;;;;;;;5.03;2.40;;;;;;;9.59;100.00;96705.84;5034067;28;20032;-75
2022/05/14 05:06:28;;;;;;;8.67;3.03;;;;;;;9.56;100.00;96701.72;5036116;28;20410;-75
2022/05/14 05:08:55;;;;;;;8.30;2.43;;;;;;;9.65;100.00;96692.97;5032198;28;20041;-75
2022/05/14 05:11:22;;;;;;;8.37;2.63;;;;;;;9.85;100.00;96699.00;5029902;28;20040;-75
2022/05/14 05:13:49;;;;;;;7.33;2.53;;;;;;;10.02;100.00;96694.78;5025033;28;20025;-75
2022/05/14 05:16:14;;;;;;;6.43;2.20;;;;;;;10.43;100.00;96697.97;5041605;28;20043;-75
2022/05/14 05:18:40;;;;;;;6.33;2.27;;;;;;;10.59;100.00;96692.03;5052926;28;20060;-75
2022/05/14 05:21:07;;;;;;;5.60;2.70;;;;;;;10.84;100.00;96693.16;5044708;28;20033;-75
2022/05/14 05:23:34;;;;;;;5.37;2.10;;;;;;;11.12;100.00;96693.06;5045154;28;20044;-75
2022/05/14 05:26:00;;;;;;;10.43;3.07;;;;;;;11.37;100.00;96699.34;5044663;28;20029;-75
2022/05/14 05:28:27;;;;;;;6.37;2.67;;;;;;;11.72;100.00;96693.19;5034218;28;20044;-75
2022/05/14 05:30:54;;;;;;;4.43;2.03;;;;;;;11.90;100.00;96691.34;5029666;28;20053;-75
2022/05/14 05:33:22;;;;;;;8.27;2.87;;;;;;;12.20;100.00;96689.19;5022911;28;20028;-75
2022/05/14 05:35:49;;;;;;;7.30;2.40;;;;;;;12.38;100.00;96689.94;5011667;28;20034;-75
2022/05/14 05:38:15;;;;;;;9.00;2.60;;;;;;;12.60;100.00;96690.31;5038700;28;20041;-75
2022/05/14 05:40:42;;;;;;;7.33;2.37;;;;;;;12.78;100.00;96688.41;5034118;28;20053;-74
2022/05/14 05:43:09;;;;;;;5.47;2.33;;;;;;;12.76;100.00;96690.38;5041089;28;20032;-75
2022/05/14 05:45:37;;;;;;;8.73;2.53;;;;;;;13.03;100.00;96688.44;5042141;28;20028;-75
2022/05/14 05:48:03;;;;;;;7.93;3.03;;;;;;;13.37;100.00;96685.69;5040412;28;20029;-75
2022/05/14 05:50:29;;;;;;;5.70;2.30;;;;;;;13.67;99.20;96681.53;5021419;28;20041;-75
2022/05/14 05:52:55;;;;;;;5.20;2.30;;;;;;;13.85;97.43;96686.63;5048710;28;20491;-75
2022/05/14 05:58:06;;;;;;;7.77;2.70;;;;;;;14.71;92.50;96683.19;5040991;28;20033;-75
2022/05/14 06:00:33;;;;;;;6.53;1.93;;;;;;;14.85;88.76;96686.91;5036927;28;20029;-76
2022/05/14 06:02:59;;;;;;;5.07;2.23;;;;;;;14.88;86.66;96678.63;5040860;28;20030;-75
2022/05/14 06:05:26;;;;;;;6.07;2.13;;;;;;;15.22;84.09;96680.84;5046799;28;20062;-74
2022/05/14 06:07:52;;;;;;;7.30;2.20;;;;;;;15.52;83.43;96684.41;5051390;28;20542;-75
2022/05/14 06:10:20;;;;;;;6.40;1.97;;;;;;;15.70;79.03;96688.63;5030149;28;20029;-76
2022/05/14 06:12:46;;;;;;;5.20;1.90;;;;;;;15.68;76.07;96682.66;5032590;28;20025;-75
2022/05/14 06:15:17;;;;;;;5.60;2.33;;;;;;;15.70;77.08;96678.03;5042213;28;20033;-75
2022/05/14 06:17:44;;;;;;;6.70;1.97;;;;;;;16.12;77.07;96685.34;5041961;28;20021;-75
2022/05/14 06:20:13;;;;;;;4.87;1.77;;;;;;;16.18;74.28;96684.63;5020886;28;20053;-75
2022/05/14 06:22:39;;;;;;;6.90;1.63;;;;;;;16.45;73.52;96685.00;5048015;28;20033;-75
2022/05/14 06:25:06;;;;;;;5.77;1.97;;;;;;;16.86;73.01;96682.63;5029059;28;20032;-75
2022/05/14 06:27:32;;;;;;;5.10;1.90;;;;;;;16.83;71.18;96695.47;5053335;28;20021;-75
2022/05/14 06:29:58;;;;;;;7.07;2.13;;;;;;;16.81;70.88;96687.69;5030738;28;20041;-75
2022/05/14 06:32:25;;;;;;;5.13;2.03;;;;;;;17.39;71.33;96687.66;5040720;28;20042;-75
2022/05/14 06:34:51;;;;;;;5.32;2.20;;;;;;;17.42;70.53;96684.63;5037689;28;20040;-75
2022/05/14 06:37:17;;;;;;;6.60;2.58;;;;;;;17.24;73.10;96685.09;5037931;28;20053;-75
2022/05/14 06:39:43;;;;;;;7.57;2.40;;;;;;;17.38;68.62;96680.72;5034104;28;20052;-75
2022/05/14 06:42:11;;;;;;;5.53;2.35;;;;;;;17.26;68.87;96691.03;5048861;28;20041;-75
2022/05/14 06:44:36;;;;;;;6.57;1.90;;;;;;;17.84;69.83;96688.25;5013655;28;20490;-75
2022/05/14 06:47:02;;;;;;;5.40;1.85;;;;;;;17.88;65.23;96678.91;5017610;28;20037;-75
2022/05/14 06:49:28;;;;;;;4.88;2.00;;;;;;;18.27;65.51;96685.47;5049954;28;20038;-75
2022/05/14 06:51:57;;;;;;;6.60;1.92;;;;;;;18.06;63.71;96683.72;5033850;28;20013;-75
2022/05/14 06:54:23;;;;;;;7.90;2.33;;;;;;;18.70;63.05;96683.41;5028604;28;20034;-75
2022/05/14 06:56:50;;;;;;;6.35;2.08;;;;;;;19.02;60.74;96684.59;5028375;28;20529;-75
2022/05/14 06:59:15;;;;;;;5.70;1.75;;;;;;;19.06;59.20;96677.00;5036476;28;20030;-75
2022/05/14 07:01:44;;;;;;;6.88;2.33;;;;;;;19.19;61.43;96684.22;5032439;28;20044;-76
2022/05/14 07:06:59;;;;;;;7.93;2.67;;;;;;;20.01;56.19;96670.50;5046788;28;20033;-75
2022/05/14 07:09:27;;;;;;;3.53;1.50;;;;;;;19.46;55.31;96679.75;5044157;28;20029;-75
2022/05/14 07:11:57;;;;;;;4.70;1.85;;;;;;;19.82;54.34;96675.84;5034028;28;20033;-75
2022/05/14 07:14:24;;;;;;;6.15;1.85;;;;;;;20.45;52.54;96676.97;5035646;28;20483;-75
2022/05/14 07:16:52;;;;;;;4.82;1.70;;;;;;;20.95;51.31;96682.53;5028359;28;20079;-75
2022/05/14 07:19:18;;;;;;;6.22;1.80;;;;;;;19.89;52.15;96679.38;5025679;28;20029;-75
2022/05/14 07:21:45;;;;;;;6.97;1.40;;;;;;;20.70;52.29;96678.97;5033969;28;20102;-75
2022/05/14 07:24:21;;;;;;;4.40;1.85;;;;;;;20.44;51.56;96675.31;5031635;28;20045;-76
2022/05/14 07:26:49;;;;;;;4.88;2.05;;;;;;;21.31;49.30;96683.78;5044384;28;20037;-76
2022/05/14 07:29:17;;;;;;;7.38;2.03;;;;;;;21.56;48.52;96677.66;5044639;28;20077;-76
2022/05/14 07:31:44;;;;;;;8.00;1.67;;;;;;;21.50;47.34;96673.19;5041032;28;20034;-76
2022/05/14 07:34:10;;;;;;;4.40;1.63;;;;;;;21.37;47.58;96677.59;5039192;28;20033;-76
2022/05/14 07:36:44;;;;;;;6.18;2.13;;;;;;;21.08;46.07;96680.84;5022276;28;20035;-76
2022/05/14 07:39:10;;;;;;;3.67;1.30;;;;;;;21.82;44.58;96682.78;5038334;28;20033;-76
2022/05/14 07:41:41;;;;;;;3.75;1.15;;;;;;;21.64;44.77;96680.09;5021528;28;20025;-77
2022/05/14 07:44:10;;;;;;;3.53;1.40;;;;;;;21.92;43.84;96678.81;5033229;28;20033;-76
2022/05/14 07:46:37;;;;;;;5.40;1.40;;;;;;;22.11;44.14;96677.81;5043238;28;20043;-76
2022/05/14 07:49:07;;;;;;;5.78;1.40;;;;;;;22.33;45.47;96676.38;5023707;28;20074;-76
2022/05/14 07:51:34;;;;;;;6.82;1.85;;;;;;;22.24;42.48;96682.25;5049540;28;20044;-77
2022/05/14 07:54:00;;;;;;;5.03;1.55;;;;;;;23.07;42.14;96681.69;5046200;28;20037;-74
2022/05/14 07:56:27;;;;;;;5.85;0.90;;;;;;;23.35;39.08;96677.59;5042909;28;20028;-76
2022/05/14 07:58:52;;;;;;;3.22;1.02;;;;;;;22.77;40.14;96679.78;5027797;28;20119;-77
2022/05/14 08:01:18;;;;;;;6.05;1.52;;;;;;;23.42;39.21;96681.00;5042080;28;20029;-77
2022/05/14 08:03:44;;;;;;;4.97;1.10;;;;;;;23.38;39.76;96682.50;5042601;28;20079;-77
2022/05/14 08:06:11;;;;;;;5.03;1.10;;;;;;;23.28;38.45;96681.19;5044327;28;20037;-77
2022/05/14 08:08:37;;;;;;;3.67;1.17;;;;;;;22.78;38.37;96677.91;5044521;28;20063;-77
2022/05/14 08:11:03;;;;;;;3.38;1.40;;;;;;;23.52;38.05;96678.56;5032354;28;20026;-76
2022/05/14 08:13:33;;;;;;;6.47;1.60;;;;;;;24.15;37.24;96674.44;5033905;28;20028;-77
2022/05/14 08:15:59;;;;;;;3.28;1.05;;;;;;;24.43;37.88;96676.44;5006350;28;1228837;-77
2022/05/14 08:18:25;;;;;;;3.17;1.40;;;;;;;24.32;37.49;96674.56;5024333;28;20102;-77
2022/05/14 08:20:51;;;;;;;3.17;1.10;;;;;;;24.78;37.26;96676.38;5021094;28;20065;-76
2022/05/14 08:26:03;;;;;;;5.10;1.40;;;;;;;25.09;36.42;96683.16;5043766;28;20030;-77
2022/05/14 08:28:30;;;;;;;3.58;1.20;;;;;;;24.76;37.48;96678.47;5017235;28;20411;-79
2022/05/14 08:30:57;;;;;;;5.03;1.30;;;;;;;24.30;37.02;96676.66;5029556;28;20033;-78
2022/05/14 08:33:22;;;;;;;4.63;1.90;;;;;;;25.40;36.07;96681.03;5030010;28;20530;-76
2022/05/14 08:35:49;;;;;;;4.93;1.27;;;;;;;24.62;36.43;96680.63;5036933;28;20135;-78
2022/05/14 08:38:17;;;;;;;3.95;1.40;;;;;;;25.04;35.63;96682.22;4992520;28;20061;-78
2022/05/14 08:40:52;;;;;;;4.90;1.40;;;;;;;24.69;35.45;96681.28;5012350;28;20420;-79
2022/05/14 08:43:23;;;;;;;4.55;1.10;;;;;;;23.90;36.57;96677.34;5012041;28;20478;-77
2022/05/14 08:45:49;;;;;;;3.80;1.02;;;;;;;24.14;34.96;96670.91;5028909;28;20042;-80
2022/05/14 08:48:37;;;;;;;4.38;1.13;;;;;;;24.40;36.13;96674.19;5019731;28;20104;-80
2022/05/14 08:51:16;;;;;;;2.63;1.15;;;;;;;24.02;36.04;96670.13;5014206;28;20033;-79
2022/05/14 08:53:47;;;;;;;6.05;1.30;;;;;;;25.11;36.71;96667.59;5023838;28;20033;-80
2022/05/14 08:56:19;;;;;;;5.43;1.40;;;;;;;25.04;35.34;96672.28;5035178;28;20056;-80
2022/05/14 08:59:13;;;;;;;9.57;1.42;;;;;;;25.24;34.65;96671.06;5025412;28;20092;-80
2022/05/14 09:01:42;;;;;;;4.32;1.52;;;;;;;25.28;35.49;96670.31;5034682;28;20091;-80
2022/05/14 09:04:11;;;;;;;3.95;1.55;;;;;;;25.54;34.05;96671.59;5034035;28;20033;-80
2022/05/14 09:06:44;;;;;;;3.03;1.40;;;;;;;25.74;33.98;96668.41;5026306;28;20029;-81
2022/05/14 09:09:13;;;;;;;4.43;1.27;;;;;;;24.63;33.95;96666.09;5005528;28;20059;-78
2022/05/14 09:11:43;;;;;;;7.80;1.65;;;;;;;25.18;36.50;96670.13;5023606;28;20765;-79
2022/05/14 09:14:31;;;;;;;3.80;1.27;;;;;;;24.62;34.39;96655.59;5015754;28;20479;-78
2022/05/14 09:17:42;;;;;;;4.78;1.88;;;;;;;24.57;35.45;96664.34;5044015;28;20056;-79
2022/05/14 09:20:08;;;;;;;4.15;1.20;;;;;;;24.55;35.63;96663.78;5017665;28;20033;-78
2022/05/14 09:22:52;;;;;;;3.22;1.25;;;;;;;25.72;35.49;96661.63;5007056;28;20089;-81
2022/05/14 09:25:31;;;;;;;4.30;1.23;;;;;;;26.16;33.51;96664.50;5018191;28;20475;-78
2022/05/14 09:28:01;;;;;;;5.97;1.33;;;;;;;25.95;35.50;96663.38;5029763;28;20120;-79
2022/05/14 09:30:34;;;;;;;3.90;1.42;;;;;;;27.06;31.85;96662.41;5030968;28;20033;-78
2022/05/14 09:33:00;;;;;;;3.00;1.30;;;;;;;26.80;33.49;96664.84;5021670;28;20115;-79
2022/05/14 09:35:29;;;;;;;3.80;1.30;;;;;;;27.09;30.62;96664.59;5019371;28;20045;-79
2022/05/14 09:38:18;;;;;;;2.30;1.10;;;;;;;25.71;32.25;96668.09;5012105;28;20117;-79
2022/05/14 09:40:45;;;;;;;5.05;1.20;;;;;;;25.28;32.55;96670.31;5031641;28;20029;-78
2022/05/14 09:43:15;;;;;;;4.50;1.35;;;;;;;25.71;33.33;96660.00;5019675;28;20033;-78
2022/05/14 09:45:44;;;;;;;5.22;1.25;;;;;;;25.09;34.58;96661.63;5034816;28;20474;-78
2022/05/14 09:48:21;;;;;;;4.57;1.25;;;;;;;26.69;32.48;96654.97;5033178;28;20044;-78
2022/05/14 09:51:00;;;;;;;4.60;1.63;;;;;;;26.77;30.23;96646.44;5022044;28;20053;-78
2022/05/14 09:53:31;;;;;;;5.63;1.40;;;;;;;27.79;29.25;96643.97;5032537;28;20032;-78
2022/05/14 09:56:41;;;;;;;4.47;1.60;;;;;;;27.17;31.46;96645.31;5020468;28;20100;-79
2022/05/14 09:59:32;;;;;;;8.18;1.33;;;;;;;27.25;31.08;96647.53;4971687;28;20049;-76
2022/05/14 10:02:07;;;;;;;3.97;1.20;;;;;;;27.84;29.44;96639.44;5019438;28;20095;-78
2022/05/14 10:04:53;;;;;;;6.55;1.48;;;;;;;27.21;29.88;96647.22;5028035;28;20411;-80
2022/05/14 10:07:28;;;;;;;4.78;1.35;;;;;;;27.17;30.90;96648.00;5015076;28;20045;-79
2022/05/14 10:10:08;;;;;;;3.22;1.30;;;;;;;26.55;31.55;96647.25;5015167;28;20071;-78
2022/05/14 10:12:45;;;;;;;3.72;1.08;;;;;;;28.00;29.97;96644.91;5029739;28;20060;-79
2022/05/14 10:15:39;;;;;;;3.95;1.17;;;;;;;28.38;29.66;96641.91;5025690;28;20094;-79
2022/05/14 10:18:26;;;;;;;3.17;1.02;;;;;;;27.69;31.01;96633.88;5024754;28;20033;-80
2022/05/14 10:21:15;;;;;;;4.38;1.00;;;;;;;28.79;28.80;96636.69;5019054;28;20479;-79
2022/05/14 10:26:53;;;;;;;4.47;1.00;;;;;;;27.50;30.14;96642.38;5034900;28;20056;-80
2022/05/14 10:29:42;;;;;;;5.60;1.40;;;;;;;28.23;29.57;96636.41;5033335;28;20060;-79
2022/05/14 10:32:12;;;;;;;4.72;1.65;;;;;;;27.69;28.06;96644.66;5029392;28;20033;-80
2022/05/14 10:34:41;;;;;;;3.15;1.40;;;;;;;27.78;29.06;96643.16;5034085;28;20025;-79
2022/05/14 10:37:25;;;;;;;2.13;0.80;;;;;;;28.46;28.58;96634.41;5034172;28;20034;-80
2022/05/14 10:40:07;;;;;;;4.28;1.38;;;;;;;28.62;26.61;96631.50;5023637;28;20041;-77
2022/05/14 10:42:54;;;;;;;3.45;1.27;;;;;;;28.51;27.21;96629.03;5017488;28;20110;-78
2022/05/14 10:45:41;;;;;;;2.65;1.25;;;;;;;27.64;29.67;96629.25;5024908;28;20649;-77
2022/05/14 10:48:19;;;;;;;4.97;1.25;;;;;;;27.57;29.26;96633.25;5027822;28;20022;-78
2022/05/14 10:50:44;;;;;;;6.60;1.70;;;;;;;29.17;28.30;96618.41;5027054;28;20533;-77
2022/05/14 10:53:11;;;;;;;3.83;1.10;;;;;;;29.05;28.00;96620.56;5025340;28;20032;-77
2022/05/14 10:55:58;;;;;;;5.80;1.60;;;;;;;28.23;28.50;96616.66;5012919;28;20368;-77
2022/05/14 10:58:36;;;;;;;2.90;1.20;;;;;;;27.66;26.67;96620.88;5028093;28;20498;-78
2022/05/14 11:01:31;;;;;;;5.60;1.60;;;;;;;28.56;26.69;96621.72;5030141;28;20826;-77
2022/05/14 11:04:23;;;;;;;2.92;0.88;;;;;;;27.72;25.45;96617.13;5013927;28;20036;-77
2022/05/14 11:07:10;;;;;;;2.78;1.02;;;;;;;29.43;24.24;96621.16;5020005;28;20041;-78
2022/05/14 11:09:47;;;;;;;4.18;1.52;;;;;;;28.26;25.92;96614.25;5037249;28;20067;-78
2022/05/14 11:12:34;;;;;;;5.57;3.88;;;;;;;27.86;24.86;96609.41;5025550;28;20068;-78
2022/05/14 11:15:03;;;;;;;5.60;2.13;;;;;;;28.50;24.99;96613.84;5022150;28;20036;-77
2022/05/14 11:17:32;;;;;;;5.78;1.75;;;;;;;28.06;27.29;96608.75;5035705;28;20071;-78
2022/05/14 11:20:10;;;;;;;3.28;1.15;;;;;;;28.92;25.62;96605.63;5032075;28;20041;-78
2022/05/14 11:22:43;;;;;;;3.30;1.00;;;;;;;29.14;25.51;96608.09;5023349;28;20038;-78
2022/05/14 11:25:27;;;;;;;6.63;1.33;;;;;;;27.95;25.84;96607.88;5033762;28;20107;-78
2022/05/14 11:28:05;;;;;;;4.28;1.58;;;;;;;28.33;26.48;96606.72;5018064;28;20025;-78
2022/05/14 11:30:36;;;;;;;6.28;1.35;;;;;;;28.22;28.67;96602.34;5032605;28;20029;-75
2022/05/14 11:33:06;;;;;;;5.10;1.35;;;;;;;27.68;28.06;96614.13;5030591;28;20505;-78
2022/05/14 11:35:38;;;;;;;7.95;1.45;;;;;;;27.22;27.12;96608.34;5036707;28;20029;-76
2022/05/14 11:38:13;;;;;;;2.65;1.02;;;;;;;27.87;25.94;96606.47;5036115;28;20025;-77
2022/05/14 11:40:39;;;;;;;2.95;1.15;;;;;;;26.81;27.03;96599.00;5022977;28;20076;-76
2022/05/14 11:43:05;;;;;;;4.50;1.25;;;;;;;27.51;26.59;96602.66;5029577;28;20386;-75
2022/05/14 11:45:31;;;;;;;3.53;1.20;;;;;;;27.10;28.07;96599.56;5037972;28;20047;-75
2022/05/14 11:48:19;;;;;;;2.88;0.95;;;;;;;28.15;27.52;96594.47;5028176;28;20037;-75
2022/05/14 11:50:56;;;;;;;3.42;1.20;;;;;;;27.22;27.62;96599.44;5015730;28;20518;-75
2022/05/14 11:53:32;;;;;;;2.30;0.98;;;;;;;27.62;28.40;96592.75;5025597;28;20068;-75
2022/05/14 11:56:05;;;;;;;4.18;1.30;;;;;;;27.91;26.13;96587.84;5012809;28;20040;-76
2022/05/14 11:58:36;;;;;;;2.60;1.23;;;;;;;27.60;26.06;96589.47;5029931;28;20025;-76
2022/05/14 12:01:15;;;;;;;2.88;1.17;;;;;;;28.15;25.39;96588.25;5037354;28;20040;-75